createdAt,value
2022-09-02T00:00:08.481Z,1999.90
2022-09-02T00:02:10.297Z,1999.90
2022-09-02T00:04:18.533Z,1999.90
2022-09-02T00:06:20.229Z,1999.90
2022-09-02T00:08:21.880Z,1999.90
2022-09-02T00:10:23.698Z,1999.90
2022-09-02T00:12:25.733Z,1999.90
2022-09-02T00:14:31.505Z,1999.90
2022-09-02T00:16:33.706Z,1999.90
2022-09-02T00:18:36.161Z,1999.90
2022-09-02T00:20:37.844Z,1999.90
2022-09-02T00:22:39.820Z,1999.90
2022-09-02T00:24:41.584Z,1999.90
2022-09-02T00:26:44.212Z,1999.90
2022-09-02T00:28:55.767Z,1999.90
2022-09-02T00:30:58.195Z,1999.90
2022-09-02T00:33:00.216Z,1999.90
2022-09-02T00:35:02.513Z,1999.90
2022-09-02T00:37:04.346Z,1999.90
2022-09-02T00:39:08.369Z,1999.90
2022-09-02T00:41:11.378Z,1999.90
2022-09-02T00:43:23.520Z,1999.90
2022-09-02T00:45:25.455Z,1999.90
2022-09-02T00:47:27.238Z,1999.90
2022-09-02T00:49:34.857Z,1999.90
2022-09-02T00:51:59.590Z,1999.90
2022-09-02T00:54:01.564Z,1999.90
2022-09-02T00:56:03.504Z,1999.90
2022-09-02T00:58:09.580Z,1999.90
2022-09-02T01:00:19.366Z,1999.90
2022-09-02T01:02:24.309Z,1999.90
2022-09-02T01:04:26.209Z,1999.90
2022-09-02T01:06:32.931Z,1999.90
2022-09-02T01:08:36.301Z,1999.90
2022-09-02T01:10:38.222Z,1999.90
2022-09-02T01:12:39.893Z,1999.90
2022-09-02T01:14:41.579Z,1999.90
2022-09-02T01:16:49.733Z,1999.90
2022-09-02T01:18:54.043Z,1999.90
2022-09-02T01:20:58.105Z,1999.90
2022-09-02T01:23:00.827Z,1999.90
2022-09-02T01:25:15.533Z,1999.90
2022-09-02T01:27:20.231Z,1999.90
2022-09-02T01:29:24.037Z,1999.90
2022-09-02T01:31:25.763Z,1999.90
2022-09-02T01:33:28.388Z,1999.90
2022-09-02T01:35:31.525Z,1999.90
2022-09-02T01:37:33.710Z,1999.90
2022-09-02T01:39:35.423Z,1999.90
2022-09-02T01:41:37.674Z,1999.90
2022-09-02T01:43:39.394Z,1999.90
2022-09-02T01:45:43.387Z,1999.90
2022-09-02T01:47:45.127Z,1999.90
2022-09-02T01:49:47.189Z,1999.90
2022-09-02T01:51:49.850Z,1999.90
2022-09-02T01:53:51.485Z,1999.90
2022-09-02T01:55:53.395Z,1999.90
2022-09-02T01:57:55.080Z,1999.90
2022-09-02T01:59:56.746Z,1999.90
2022-09-02T02:01:58.581Z,1999.90
2022-09-02T02:04:01.575Z,1999.90
2022-09-02T02:06:09.486Z,1999.90
2022-09-02T02:08:11.383Z,1999.90
2022-09-02T02:10:15.158Z,1999.90
2022-09-02T02:12:17.510Z,1999.90
2022-09-02T02:14:19.615Z,1999.90
2022-09-02T02:16:21.443Z,1999.90
2022-09-02T02:18:23.392Z,1999.90
2022-09-02T02:20:27.105Z,1999.90
2022-09-02T02:22:29.280Z,1999.90
2022-09-02T02:24:31.092Z,1999.90
2022-09-02T02:26:32.905Z,1999.90
2022-09-02T02:28:35.499Z,1999.90
2022-09-02T02:30:37.166Z,1999.90
2022-09-02T02:32:39.150Z,1999.90
2022-09-02T02:34:41.110Z,1999.90
2022-09-02T02:36:43.000Z,1999.90
2022-09-02T02:38:46.757Z,1999.90
2022-09-02T02:40:48.520Z,1999.90
2022-09-02T02:42:53.380Z,1999.90
2022-09-02T02:44:55.141Z,1999.90
2022-09-02T02:46:56.898Z,1999.90
2022-09-02T02:49:03.330Z,1999.90
2022-09-02T02:51:05.648Z,1999.90
2022-09-02T02:53:07.413Z,1999.90
2022-09-02T02:55:10.812Z,1999.90
2022-09-02T02:57:13.940Z,1999.90
2022-09-02T02:59:15.625Z,1999.90
2022-09-02T03:01:17.354Z,1999.90
2022-09-02T03:03:19.935Z,1999.90
2022-09-02T03:05:21.689Z,1999.90
2022-09-02T03:07:23.361Z,1999.90
2022-09-02T03:09:25.579Z,1999.90
2022-09-02T03:11:28.603Z,1999.90
2022-09-02T03:13:33.597Z,1999.90
2022-09-02T03:15:36.641Z,1999.90
2022-09-02T03:17:38.724Z,1999.90
2022-09-02T03:19:40.363Z,1999.90
2022-09-02T03:21:42.909Z,1999.90
2022-09-02T03:23:45.747Z,1999.90
2022-09-02T03:25:47.567Z,1999.90
2022-09-02T03:27:49.936Z,1999.90
2022-09-02T03:29:51.562Z,1999.90
2022-09-02T03:31:53.474Z,1999.90
2022-09-02T03:33:55.862Z,1999.90
2022-09-02T03:35:57.541Z,1999.90
2022-09-02T03:38:00.744Z,1999.90
2022-09-02T03:40:07.841Z,1999.90
2022-09-02T03:42:17.469Z,1999.90
2022-09-02T03:44:21.513Z,1999.90
2022-09-02T03:46:23.774Z,1999.90
2022-09-02T03:48:25.524Z,1999.90
2022-09-02T03:50:31.421Z,1999.90
2022-09-02T03:52:33.216Z,1999.90
2022-09-02T03:54:34.999Z,1999.90
2022-09-02T03:56:37.206Z,1999.90
2022-09-02T03:58:39.373Z,1999.90
2022-09-02T04:00:44.168Z,1999.90
2022-09-02T04:02:45.897Z,1999.90
2022-09-02T04:04:51.831Z,1999.90
2022-09-02T04:06:53.523Z,1999.90
2022-09-02T04:08:55.170Z,1999.90
2022-09-02T04:10:57.553Z,1999.90
2022-09-02T04:12:59.216Z,1999.90
2022-09-02T04:15:00.941Z,1999.90
2022-09-02T04:17:03.551Z,1999.90
2022-09-02T04:19:06.022Z,1999.90
2022-09-02T04:21:08.398Z,1999.90
2022-09-02T04:23:10.450Z,1999.90
2022-09-02T04:25:12.242Z,1999.90
2022-09-02T04:27:13.941Z,1999.90
2022-09-02T04:29:15.708Z,1999.90
2022-09-02T04:31:20.547Z,1999.90
2022-09-02T04:33:23.619Z,1999.90
2022-09-02T04:35:25.248Z,1999.90
2022-09-02T04:37:27.582Z,1999.90
2022-09-02T04:39:29.260Z,1999.90
2022-09-02T04:41:31.447Z,1999.90
2022-09-02T04:43:33.087Z,1999.90
2022-09-02T04:45:34.947Z,1999.90
2022-09-02T04:47:36.636Z,1999.90
2022-09-02T04:49:38.498Z,1999.90
2022-09-02T04:51:40.255Z,1999.90
2022-09-02T04:53:42.076Z,1999.90
2022-09-02T04:55:44.006Z,1999.90
2022-09-02T04:57:45.656Z,1999.90
2022-09-02T04:59:47.279Z,1999.90
2022-09-02T05:01:50.363Z,1999.90
2022-09-02T05:03:53.663Z,1999.90
2022-09-02T05:06:04.208Z,1999.90
2022-09-02T05:08:06.101Z,1999.90
2022-09-02T05:10:09.617Z,1999.90
2022-09-02T05:12:11.668Z,1999.90
2022-09-02T05:14:13.473Z,1999.90
2022-09-02T05:16:17.045Z,1999.90
2022-09-02T05:18:18.956Z,1999.90
2022-09-02T05:20:20.792Z,1999.90
2022-09-02T05:22:22.448Z,1999.90
2022-09-02T05:24:26.676Z,1999.90
2022-09-02T05:26:28.693Z,1999.90
2022-09-02T05:28:30.405Z,1999.90
2022-09-02T05:30:32.885Z,1999.90
2022-09-02T05:32:37.706Z,1999.90
2022-09-02T05:34:39.917Z,1999.90
2022-09-02T05:36:41.623Z,1999.90
2022-09-02T05:38:43.867Z,1999.90
2022-09-02T05:40:45.712Z,1999.90
2022-09-02T05:42:47.347Z,1999.90
2022-09-02T05:44:50.569Z,1999.90
2022-09-02T05:46:52.521Z,1999.90
2022-09-02T05:49:07.686Z,1999.90
2022-09-02T05:51:09.477Z,1999.90
2022-09-02T05:53:14.329Z,1999.90
2022-09-02T05:55:16.937Z,1999.90
2022-09-02T05:57:18.864Z,1999.90
2022-09-02T05:59:21.888Z,1999.90
2022-09-02T06:01:23.737Z,1999.90
2022-09-02T06:03:25.491Z,1999.90
2022-09-02T06:05:27.458Z,1999.90
2022-09-02T06:07:29.828Z,1999.90
2022-09-02T06:09:31.643Z,1999.90
2022-09-02T06:11:33.512Z,1999.90
2022-09-02T06:13:40.474Z,1999.90
2022-09-02T06:15:44.393Z,1999.90
2022-09-02T06:17:46.162Z,1999.90
2022-09-02T06:19:47.815Z,1999.90
2022-09-02T06:21:55.145Z,1999.90
2022-09-02T06:24:00.396Z,1999.90
2022-09-02T06:26:02.141Z,1999.90
2022-09-02T06:28:07.227Z,1999.90
2022-09-02T06:30:10.105Z,1999.90
2022-09-02T06:35:42.131Z,1999.90
2022-09-02T06:37:43.828Z,1999.90
2022-09-02T06:39:46.701Z,1999.90
2022-09-02T06:41:49.153Z,1999.90
2022-09-02T06:43:51.129Z,1999.90
2022-09-02T06:45:52.851Z,1999.90
2022-09-02T06:47:54.509Z,1999.90
2022-09-02T06:49:56.173Z,1999.90
2022-09-02T06:51:59.453Z,1999.90
2022-09-02T06:54:01.756Z,1999.90
2022-09-02T06:56:07.427Z,1999.90
2022-09-02T06:58:09.333Z,1999.90
2022-09-02T07:00:11.414Z,1999.90
2022-09-02T07:02:14.087Z,1999.90
2022-09-02T07:04:35.453Z,1999.90
2022-09-02T07:06:40.829Z,1787.55
2022-09-02T07:08:44.401Z,1999.90
2022-09-02T07:10:46.033Z,1999.90
2022-09-02T07:12:47.764Z,1999.90
2022-09-02T07:14:50.197Z,1999.90
2022-09-02T07:16:52.904Z,1999.90
2022-09-02T07:18:55.228Z,1999.90
2022-09-02T07:20:56.862Z,1999.90
2022-09-02T07:22:58.627Z,1999.90
2022-09-02T07:25:00.535Z,1999.90
2022-09-02T07:27:02.167Z,1999.90
2022-09-02T07:29:07.132Z,1999.90
2022-09-02T07:31:10.442Z,1999.90
2022-09-02T07:33:13.956Z,1999.90
2022-09-02T07:35:15.886Z,1999.90
2022-09-02T07:37:17.691Z,1999.90
2022-09-02T07:39:19.721Z,1999.90
2022-09-02T07:41:22.046Z,1999.90
2022-09-02T07:43:23.784Z,1999.90
2022-09-02T07:45:26.023Z,1999.90
2022-09-02T07:47:27.805Z,1999.90
2022-09-02T07:50:15.621Z,1999.90
2022-09-02T07:51:51.443Z,1999.90
2022-09-02T07:53:53.360Z,1999.90
2022-09-02T07:55:55.108Z,1999.90
2022-09-02T07:57:59.905Z,1999.90
2022-09-02T08:00:01.928Z,1999.90
2022-09-02T08:02:03.858Z,1999.90
2022-09-02T08:04:06.502Z,1999.90
2022-09-02T08:06:08.961Z,1999.90
2022-09-02T08:08:10.921Z,1999.90
2022-09-02T08:10:13.318Z,1999.90
2022-09-02T08:12:17.757Z,1999.90
2022-09-02T08:14:26.023Z,1999.90
2022-09-02T08:16:29.098Z,1999.90
2022-09-02T08:18:31.375Z,1999.90
2022-09-02T08:20:33.296Z,1999.90
2022-09-02T08:22:36.139Z,1999.90
2022-09-02T08:24:37.815Z,1999.90
2022-09-02T08:26:39.550Z,1999.90
2022-09-02T08:28:41.186Z,1999.90
2022-09-02T08:30:42.862Z,1999.90
2022-09-02T08:32:44.539Z,1999.90
2022-09-02T08:34:46.482Z,1999.90
2022-09-02T08:36:52.537Z,1999.90
2022-09-02T08:38:58.829Z,1999.90
2022-09-02T08:41:01.075Z,1999.90
2022-09-02T08:43:05.667Z,1999.90
2022-09-02T08:45:28.698Z,1999.90
2022-09-02T08:47:31.800Z,1999.90
2022-09-02T08:49:37.193Z,1999.90
2022-09-02T08:51:52.817Z,1999.90
2022-09-02T08:54:02.910Z,1999.90
2022-09-02T08:56:05.835Z,1999.90
2022-09-02T08:58:07.817Z,1999.90
2022-09-02T09:00:10.247Z,1999.90
2022-09-02T09:02:33.087Z,1999.90
2022-09-02T09:04:53.428Z,1999.90
2022-09-02T09:07:16.453Z,1999.90
2022-09-02T09:09:18.123Z,1999.90
2022-09-02T09:11:22.525Z,1999.90
2022-09-02T09:14:01.498Z,1999.90
2022-09-02T09:16:37.565Z,1999.90
2022-09-02T09:18:42.067Z,1999.90
2022-09-02T09:20:46.093Z,1919.85
2022-09-02T09:22:50.241Z,1910.80
2022-09-02T09:24:51.962Z,1981.95
2022-09-02T09:26:55.306Z,1979.72
2022-09-02T09:28:59.569Z,1999.90
2022-09-02T09:31:01.668Z,1999.90
2022-09-02T09:33:04.476Z,1999.90
2022-09-02T09:35:07.989Z,1971.22
2022-09-02T09:37:09.665Z,1999.90
2022-09-02T09:39:18.801Z,1966.35
2022-09-02T09:41:24.054Z,1993.95
2022-09-02T09:43:30.275Z,1997.40
2022-09-02T09:45:34.725Z,1937.50
2022-09-02T09:47:36.472Z,1993.53
2022-09-02T09:49:38.874Z,1966.60
2022-09-02T09:51:54.570Z,1945.65
2022-09-02T09:54:16.091Z,1899.80
2022-09-02T09:56:17.844Z,1998.35
2022-09-02T09:58:21.150Z,1999.90
2022-09-02T10:00:32.151Z,1864.10
2022-09-02T10:02:36.532Z,1921.90
2022-09-02T10:04:45.402Z,1914.68
2022-09-02T10:06:48.521Z,1866.95
2022-09-02T10:08:56.670Z,1964.22
2022-09-02T10:11:02.377Z,1858.82
2022-09-02T10:13:37.006Z,1968.70
2022-09-02T10:16:05.706Z,1875.85
2022-09-02T10:18:14.905Z,1884.47
2022-09-02T10:20:37.101Z,1999.90
2022-09-02T10:22:59.773Z,1979.65
2022-09-02T10:25:37.033Z,1964.55
2022-09-02T10:27:47.137Z,1955.80
2022-09-02T10:29:58.070Z,1865.20
2022-09-02T10:32:15.905Z,1877.28
2022-09-02T10:34:26.598Z,1840.85
2022-09-02T10:37:07.171Z,1842.90
2022-09-02T10:39:27.312Z,1840.03
2022-09-02T10:44:06.544Z,1830.18
2022-09-02T10:46:10.655Z,1837.75
2022-09-02T10:48:54.509Z,1902.53
2022-09-02T10:51:20.568Z,1828.00
2022-09-02T10:53:31.886Z,1831.18
2022-09-02T10:56:03.855Z,1827.03
2022-09-02T10:58:10.806Z,1769.70
2022-09-02T11:00:16.667Z,1916.50
2022-09-02T11:02:26.750Z,1999.90
2022-09-02T11:04:37.867Z,1934.15
2022-09-02T11:07:02.998Z,1901.63
2022-09-02T11:09:14.494Z,1797.88
2022-09-02T11:11:23.292Z,1833.88
2022-09-02T11:13:31.249Z,1793.63
2022-09-02T11:16:00.085Z,1846.10
2022-09-02T11:20:31.107Z,1834.32
2022-09-02T11:22:45.769Z,1767.93
2022-09-02T11:25:00.692Z,1750.75
2022-09-02T11:27:26.224Z,1784.07
2022-09-02T11:29:49.440Z,1737.72
2022-09-02T11:32:10.855Z,1790.88
2022-09-02T11:34:21.733Z,1803.80
2022-09-02T11:36:25.481Z,1926.40
2022-09-02T11:38:31.162Z,1937.85
2022-09-02T11:43:30.416Z,1833.57
2022-09-02T11:45:58.158Z,1851.25
2022-09-02T11:48:37.836Z,1768.88
2022-09-02T11:50:54.643Z,1807.50
2022-09-02T11:53:20.973Z,1790.20
2022-09-02T11:55:26.139Z,1748.82
2022-09-02T11:57:27.856Z,1745.97
2022-09-02T11:59:51.259Z,1778.03
2022-09-02T12:01:55.961Z,1734.05
2022-09-02T12:07:12.992Z,1775.70
2022-09-02T12:09:55.108Z,1693.22
2022-09-02T12:11:57.067Z,1823.95
2022-09-02T12:14:01.793Z,1863.55
2022-09-02T12:16:15.736Z,1800.28
2022-09-02T12:18:29.782Z,1757.25
2022-09-02T12:20:38.546Z,1769.88
2022-09-02T12:22:42.072Z,1773.40
2022-09-02T12:24:55.500Z,1801.85
2022-09-02T12:26:57.263Z,1797.10
2022-09-02T12:29:24.699Z,1776.97
2022-09-02T12:31:42.810Z,1777.15
2022-09-02T12:33:52.115Z,1949.53
2022-09-02T12:35:54.310Z,1847.63
2022-09-02T12:37:57.832Z,1780.05
2022-09-02T12:40:03.302Z,1787.18
2022-09-02T12:42:10.115Z,1851.03
2022-09-02T12:44:15.397Z,1836.50
2022-09-02T12:46:36.170Z,1833.57
2022-09-02T12:48:42.610Z,1816.47
2022-09-02T12:50:44.248Z,1761.82
2022-09-02T12:52:48.998Z,1798.88
2022-09-02T12:54:50.808Z,1951.00
2022-09-02T12:56:52.865Z,1835.43
2022-09-02T12:58:58.887Z,1779.43
2022-09-02T13:01:20.990Z,1840.00
2022-09-02T13:03:49.441Z,1795.32
2022-09-02T13:05:55.085Z,1752.88
2022-09-02T13:08:28.898Z,1911.18
2022-09-02T13:10:58.302Z,1762.65
2022-09-02T13:13:05.797Z,1755.03
2022-09-02T13:15:23.379Z,1872.22
2022-09-02T13:17:43.934Z,1855.95
2022-09-02T13:20:20.167Z,1806.68
2022-09-02T13:22:31.115Z,1713.35
2022-09-02T13:24:36.315Z,1730.90
2022-09-02T13:26:59.615Z,1842.47
2022-09-02T13:29:16.442Z,1793.22
2022-09-02T13:31:25.312Z,1942.55
2022-09-02T13:33:27.512Z,1909.25
2022-09-02T13:35:29.322Z,1892.22
2022-09-02T13:37:45.458Z,1837.20
2022-09-02T13:39:47.288Z,1809.05
2022-09-02T13:41:49.509Z,1794.75
2022-09-02T13:44:06.032Z,1825.13
2022-09-02T13:46:08.504Z,1822.15
2022-09-02T13:48:16.899Z,1763.95
2022-09-02T13:50:22.453Z,1822.97
2022-09-02T13:53:01.051Z,1755.03
2022-09-02T13:54:48.652Z,1842.53
2022-09-02T13:56:50.415Z,1822.65
2022-09-02T13:58:54.221Z,1883.10
2022-09-02T14:01:16.607Z,1802.95
2022-09-02T14:03:21.288Z,1836.50
2022-09-02T14:05:23.676Z,1838.63
2022-09-02T14:07:52.591Z,1864.22
2022-09-02T14:09:54.543Z,1837.65
2022-09-02T14:11:56.995Z,1999.90
2022-09-02T14:13:58.865Z,1806.20
2022-09-02T14:16:33.357Z,1865.88
2022-09-02T14:18:35.036Z,1812.93
2022-09-02T14:20:38.922Z,1700.85
2022-09-02T14:22:41.231Z,1867.72
2022-09-02T14:24:42.950Z,1915.22
2022-09-02T14:26:46.414Z,1827.70
2022-09-02T14:28:51.217Z,1849.75
2022-09-02T14:31:04.305Z,1875.78
2022-09-02T14:33:18.687Z,1844.63
2022-09-02T14:35:22.709Z,1916.40
2022-09-02T14:37:26.247Z,1855.97
2022-09-02T14:39:28.029Z,1905.18
2022-09-02T14:41:36.127Z,1964.25
2022-09-02T14:43:46.797Z,1975.30
2022-09-02T14:45:49.835Z,1902.18
2022-09-02T14:47:51.614Z,1966.05
2022-09-02T14:49:56.090Z,1999.90
2022-09-02T14:52:06.013Z,1980.70
2022-09-02T14:54:08.037Z,1851.30
2022-09-02T14:56:09.924Z,1861.63
2022-09-02T14:58:11.825Z,1999.90
2022-09-02T15:00:15.169Z,1965.70
2022-09-02T15:02:28.929Z,1822.05
2022-09-02T15:04:32.571Z,1940.30
2022-09-02T15:06:34.358Z,1979.25
2022-09-02T15:08:35.948Z,1943.72
2022-09-02T15:10:40.445Z,1935.85
2022-09-02T15:12:49.566Z,1882.65
2022-09-02T15:14:54.207Z,1952.18
2022-09-02T15:16:55.930Z,1909.00
2022-09-02T15:18:57.646Z,1824.32
2022-09-02T15:20:59.326Z,1999.90
2022-09-02T15:23:03.164Z,1822.50
2022-09-02T15:25:08.058Z,1857.35
2022-09-02T15:27:10.865Z,1872.78
2022-09-02T15:29:13.688Z,1870.15
2022-09-02T15:31:15.700Z,1881.10
2022-09-02T15:33:17.863Z,1838.18
2022-09-02T15:35:19.643Z,1911.80
2022-09-02T15:37:21.360Z,1871.43
2022-09-02T15:39:24.219Z,1863.88
2022-09-02T15:41:31.584Z,1950.78
2022-09-02T15:43:35.277Z,1847.43
2022-09-02T15:45:47.201Z,1947.32
2022-09-02T15:47:48.889Z,1874.40
2022-09-02T15:49:52.465Z,1999.90
2022-09-02T15:51:55.128Z,1901.80
2022-09-02T15:54:05.777Z,1899.07
2022-09-02T15:56:18.801Z,1828.95
2022-09-02T15:58:20.487Z,1814.05
2022-09-02T16:00:22.186Z,1979.40
2022-09-02T16:02:23.912Z,1941.53
2022-09-02T16:04:27.412Z,1938.60
2022-09-02T16:06:30.208Z,1798.25
2022-09-02T16:08:31.928Z,1867.65
2022-09-02T16:10:36.521Z,1823.68
2022-09-02T16:12:38.262Z,1876.82
2022-09-02T16:14:40.139Z,1912.65
2022-09-02T16:16:43.017Z,1900.47
2022-09-02T16:18:49.041Z,1931.25
2022-09-02T16:20:50.819Z,1855.00
2022-09-02T16:22:52.758Z,1936.68
2022-09-02T16:24:54.724Z,1999.90
2022-09-02T16:26:56.434Z,1950.82
2022-09-02T16:29:06.738Z,1915.88
2022-09-02T16:31:10.738Z,1887.20
2022-09-02T16:33:12.986Z,1893.68
2022-09-02T16:35:14.742Z,1968.45
2022-09-02T16:37:17.622Z,1921.43
2022-09-02T16:39:20.588Z,1987.93
2022-09-02T16:41:34.724Z,1963.70
2022-09-02T16:43:36.503Z,1994.28
2022-09-02T16:45:39.093Z,1992.63
2022-09-02T16:47:41.014Z,1941.30
2022-09-02T16:49:42.880Z,1884.40
2022-09-02T16:51:46.186Z,1911.50
2022-09-02T16:53:48.388Z,1890.22
2022-09-02T16:55:51.675Z,1934.85
2022-09-02T16:57:53.395Z,1971.57
2022-09-02T16:59:55.069Z,1998.72
2022-09-02T17:01:56.791Z,1997.93
2022-09-02T17:04:00.224Z,1993.32
2022-09-02T17:06:01.862Z,1999.90
2022-09-02T17:08:04.160Z,1937.30
2022-09-02T17:10:06.320Z,1999.90
2022-09-02T17:12:08.039Z,1999.90
2022-09-02T17:14:16.200Z,1999.90
2022-09-02T17:16:20.143Z,1996.20
2022-09-02T17:18:22.373Z,1999.90
2022-09-02T17:20:24.577Z,1999.90
2022-09-02T17:22:26.220Z,1988.55
2022-09-02T17:24:30.901Z,1999.90
2022-09-02T17:26:34.577Z,1987.30
2022-09-02T17:28:38.273Z,1973.53
2022-09-02T17:30:39.981Z,1972.82
2022-09-02T17:32:42.174Z,1999.90
2022-09-02T17:34:43.796Z,1998.90
2022-09-02T17:36:45.720Z,1999.90
2022-09-02T17:38:47.937Z,1995.72
2022-09-02T17:41:08.338Z,1985.72
2022-09-02T17:43:10.008Z,1997.88
2022-09-02T17:45:11.662Z,1996.55
2022-09-02T17:47:20.227Z,1999.90
2022-09-02T17:49:22.330Z,1999.90
2022-09-02T17:51:25.490Z,1999.90
2022-09-02T17:53:28.248Z,1999.90
2022-09-02T17:55:33.570Z,1999.90
2022-09-02T17:57:42.929Z,1999.90
2022-09-02T18:00:07.591Z,1999.90
2022-09-02T18:02:15.649Z,1999.90
2022-09-02T18:04:43.527Z,1999.90
2022-09-02T18:06:49.314Z,1999.90
2022-09-02T18:08:59.516Z,1999.90
2022-09-02T18:11:04.533Z,1999.90
2022-09-02T18:13:19.555Z,1999.90
2022-09-02T18:15:21.360Z,1999.90
2022-09-02T18:17:49.956Z,1999.90
2022-09-02T18:20:18.579Z,1999.90
2022-09-02T18:22:38.728Z,1999.90
2022-09-02T18:24:47.257Z,1999.90
2022-09-02T18:26:55.460Z,1999.90
2022-09-02T18:29:20.687Z,1999.90
2022-09-02T18:31:36.370Z,1999.90
2022-09-02T18:33:58.281Z,1999.90
2022-09-02T18:36:18.895Z,1999.90
2022-09-02T18:38:40.480Z,1999.90
2022-09-02T18:40:48.164Z,1999.90
2022-09-02T18:43:13.069Z,1999.90
2022-09-02T18:45:25.217Z,1999.90
2022-09-02T18:47:29.875Z,1999.90
2022-09-02T18:49:34.292Z,1999.90
2022-09-02T18:51:39.381Z,1999.90
2022-09-02T18:53:45.959Z,1999.90
2022-09-02T18:55:48.025Z,1999.90
2022-09-02T18:57:55.724Z,1999.90
2022-09-02T19:00:04.697Z,1999.90
2022-09-02T19:02:37.056Z,1999.90
2022-09-02T19:04:38.782Z,1999.90
2022-09-02T19:06:40.905Z,1999.90
2022-09-02T19:08:44.995Z,1999.90
2022-09-02T19:10:47.007Z,1999.90
2022-09-02T19:12:48.900Z,1999.90
2022-09-02T19:14:50.948Z,1999.90
2022-09-02T19:16:53.645Z,1999.90
2022-09-02T19:18:58.524Z,1999.90
2022-09-02T19:21:00.384Z,1999.90
2022-09-02T19:23:04.510Z,1999.90
2022-09-02T19:25:10.657Z,1999.90
2022-09-02T19:27:20.972Z,1999.90
2022-09-02T19:29:24.438Z,1999.90
2022-09-02T19:31:29.690Z,1999.90
2022-09-02T19:33:32.608Z,1999.90
2022-09-02T19:35:36.358Z,1999.90
2022-09-02T19:37:44.590Z,1999.90
2022-09-02T19:39:51.272Z,1999.90
2022-09-02T19:41:54.211Z,1999.90
2022-09-02T19:43:55.989Z,1999.90
2022-09-02T19:45:59.971Z,1999.90
2022-09-02T19:48:09.673Z,1999.90
2022-09-02T19:50:11.491Z,1999.90
2022-09-02T19:52:13.166Z,1999.90
2022-09-02T19:54:15.578Z,1999.90
2022-09-02T19:56:20.309Z,1999.90
2022-09-02T19:58:22.398Z,1999.90
2022-09-02T20:00:24.499Z,1999.90
2022-09-02T20:02:26.266Z,1999.90
2022-09-02T20:04:30.205Z,1999.90
2022-09-02T20:06:32.444Z,1999.90
2022-09-02T20:08:34.556Z,1999.90
2022-09-02T20:10:37.791Z,1999.90
2022-09-02T20:12:39.639Z,1999.90
2022-09-02T20:14:41.313Z,1999.90
2022-09-02T20:16:43.148Z,1999.90
2022-09-02T20:18:46.727Z,1999.90
2022-09-02T20:20:50.714Z,1999.90
2022-09-02T20:22:55.347Z,1999.90
2022-09-02T20:24:58.020Z,1999.90
2022-09-02T20:27:23.373Z,1999.90
2022-09-02T20:29:43.634Z,1999.90
2022-09-02T20:32:01.552Z,1999.90
2022-09-02T20:34:33.816Z,1999.90
2022-09-02T20:37:14.415Z,1999.90
2022-09-02T20:39:38.037Z,1999.90
2022-09-02T20:41:58.552Z,1999.90
2022-09-02T20:44:31.286Z,1999.90
2022-09-02T20:46:42.447Z,1999.90
2022-09-02T20:49:19.751Z,1999.90
2022-09-02T20:51:35.712Z,1999.90
2022-09-02T20:54:03.824Z,1999.90
2022-09-02T20:56:12.209Z,1999.90
2022-09-02T20:58:36.611Z,1999.90
2022-09-02T21:00:38.605Z,1999.90
2022-09-02T21:03:04.277Z,1999.90
2022-09-02T21:05:22.155Z,1999.90
2022-09-02T21:07:27.189Z,1999.90
2022-09-02T21:09:45.519Z,1999.90
2022-09-02T21:11:53.379Z,1999.90
2022-09-02T21:14:07.394Z,1999.90
2022-09-02T21:16:19.563Z,1999.90
2022-09-02T21:18:47.050Z,1999.90
2022-09-02T21:21:00.435Z,1999.90
2022-09-02T21:23:07.751Z,1999.90
2022-09-02T21:25:19.937Z,1999.90
2022-09-02T21:27:27.508Z,1999.90
2022-09-02T21:29:31.859Z,1999.90
2022-09-02T21:31:36.870Z,1999.90
2022-09-02T21:33:41.387Z,1999.90
2022-09-02T21:35:47.243Z,1999.90
2022-09-02T21:37:53.224Z,1999.90
2022-09-02T21:40:02.156Z,1999.90
2022-09-02T21:42:39.127Z,1999.90
2022-09-02T21:44:57.589Z,1999.90
2022-09-02T21:47:17.216Z,1999.90
2022-09-02T21:49:32.244Z,1999.90
2022-09-02T21:51:50.326Z,1999.90
2022-09-02T21:53:55.302Z,1999.90
2022-09-02T21:56:39.004Z,1999.90
2022-09-02T21:58:49.388Z,1999.90
2022-09-02T22:01:27.097Z,1999.90
2022-09-02T22:03:56.792Z,1999.90
2022-09-02T22:06:04.785Z,1999.90
2022-09-02T22:08:34.063Z,1999.90
2022-09-02T22:10:42.075Z,1999.90
2022-09-02T22:12:50.087Z,1999.90
2022-09-02T22:15:01.841Z,1999.90
2022-09-02T22:17:17.501Z,1999.90
2022-09-02T22:19:19.936Z,1999.90
2022-09-02T22:21:49.250Z,1999.90
2022-09-02T22:23:53.674Z,1999.90
2022-09-02T22:26:08.487Z,1999.90
2022-09-02T22:28:21.212Z,1999.90
2022-09-02T22:30:23.090Z,1999.90
2022-09-02T22:32:31.974Z,1999.90
2022-09-02T22:34:39.143Z,1999.90
2022-09-02T22:37:07.797Z,1999.90
2022-09-02T22:39:12.589Z,1999.90
2022-09-02T22:41:23.776Z,1999.90
2022-09-02T22:43:41.561Z,1999.90
2022-09-02T22:46:09.537Z,1999.90
2022-09-02T22:48:36.762Z,1999.90
2022-09-02T22:51:00.349Z,1999.90
2022-09-02T22:53:02.104Z,1999.90
2022-09-02T22:55:05.293Z,1999.90
2022-09-02T22:57:33.311Z,1999.90
2022-09-02T23:00:00.086Z,1999.90
2022-09-02T23:02:13.413Z,1999.90
2022-09-02T23:04:52.205Z,1999.90
2022-09-02T23:06:59.049Z,1999.90
2022-09-02T23:09:09.461Z,1999.90
2022-09-02T23:11:35.451Z,1999.90
2022-09-02T23:14:01.014Z,1999.90
2022-09-02T23:16:10.167Z,1999.90
2022-09-02T23:18:28.483Z,1999.90
2022-09-02T23:20:46.512Z,1999.90
2022-09-02T23:23:25.132Z,1999.90
2022-09-02T23:25:39.085Z,1999.90
2022-09-02T23:28:15.411Z,1999.90
2022-09-02T23:30:17.260Z,1999.90
2022-09-02T23:32:39.439Z,1999.90
2022-09-02T23:35:08.351Z,1999.90
2022-09-02T23:37:26.946Z,1999.90
2022-09-02T23:39:46.961Z,1999.90
2022-09-02T23:41:48.949Z,1999.90
2022-09-02T23:43:51.385Z,1999.90
2022-09-02T23:45:56.003Z,1999.90
2022-09-02T23:48:31.823Z,1999.90
2022-09-02T23:50:57.576Z,1999.90
2022-09-02T23:53:12.861Z,1999.90
2022-09-02T23:55:21.902Z,1999.90
2022-09-02T23:57:35.816Z,1999.90
